createdAt,value
2023-04-28T00:01:13.972Z,3.15
2023-04-28T00:03:42.066Z,3.38
2023-04-28T00:06:12.366Z,3.50
2023-04-28T00:08:40.287Z,2.60
2023-04-28T00:11:10.887Z,2.72
2023-04-28T00:13:38.842Z,2.65
2023-04-28T00:16:07.556Z,2.85
2023-04-28T00:18:35.897Z,3.80
2023-04-28T00:21:03.823Z,4.47
2023-04-28T00:23:33.179Z,3.15
2023-04-28T00:26:01.036Z,2.95
2023-04-28T00:30:59.705Z,3.42
2023-04-28T00:33:27.622Z,7.05
2023-04-28T00:36:00.744Z,3.08
2023-04-28T00:38:28.868Z,3.50
2023-04-28T00:40:58.235Z,5.80
2023-04-28T00:43:26.273Z,4.82
2023-04-28T00:45:54.420Z,3.47
2023-04-28T00:48:23.722Z,3.80
2023-04-28T00:50:52.460Z,4.13
2023-04-28T00:53:20.354Z,3.45
2023-04-28T00:55:48.992Z,4.63
2023-04-28T00:58:18.291Z,2.80
2023-04-28T01:00:46.306Z,3.28
2023-04-28T03:44:45.712Z,4.80
2023-04-28T04:10:06.599Z,6.85
2023-04-28T04:12:34.800Z,3.97
2023-04-28T04:15:02.561Z,5.30
2023-04-28T04:17:30.598Z,4.00
2023-04-28T04:19:58.460Z,5.40
2023-04-28T04:22:26.302Z,5.75
2023-04-28T04:24:54.123Z,4.85
2023-04-28T04:27:25.684Z,6.28
2023-04-28T04:29:53.443Z,4.38
2023-04-28T04:32:21.208Z,4.95
2023-04-28T04:34:49.349Z,4.72
2023-04-28T04:37:25.082Z,5.35
2023-04-28T04:39:52.865Z,6.20
2023-04-28T04:42:29.324Z,5.70
2023-04-28T04:45:03.819Z,6.43
2023-04-28T04:47:34.791Z,4.30
2023-04-28T04:50:08.864Z,5.03
2023-04-28T04:52:41.340Z,5.78
2023-04-28T04:55:11.353Z,5.50
2023-04-28T04:57:44.496Z,6.75
2023-04-28T05:00:19.502Z,5.15
2023-04-28T05:02:50.203Z,6.68
2023-04-28T05:05:21.682Z,4.95
2023-04-28T05:07:52.211Z,4.75
2023-04-28T05:10:24.578Z,5.72
2023-04-28T05:12:55.613Z,5.85
2023-04-28T05:15:23.650Z,5.00
2023-04-28T05:17:54.374Z,6.80
2023-04-28T05:20:26.188Z,7.97
2023-04-28T05:22:54.804Z,5.93
2023-04-28T05:25:24.922Z,6.32
2023-04-28T05:27:54.751Z,5.38
2023-04-28T05:30:26.857Z,5.50
2023-04-28T05:32:57.666Z,6.18
2023-04-28T05:35:26.085Z,5.90
2023-04-28T05:37:55.965Z,6.20
2023-04-28T05:40:27.110Z,6.35
2023-04-28T05:42:56.593Z,5.10
2023-04-28T05:45:32.496Z,5.47
2023-04-28T05:48:01.132Z,7.90
2023-04-28T05:50:29.992Z,7.35
2023-04-28T05:53:08.532Z,5.38
2023-04-28T05:55:40.671Z,6.90
2023-04-28T05:58:10.221Z,7.03
2023-04-28T06:00:43.139Z,7.47
2023-04-28T06:03:13.336Z,6.20
2023-04-28T06:05:47.665Z,8.00
2023-04-28T06:08:15.900Z,8.98
2023-04-28T06:10:43.849Z,8.02
2023-04-28T06:13:14.623Z,6.07
2023-04-28T06:15:47.180Z,6.68
2023-04-28T06:18:16.252Z,9.05
2023-04-28T06:20:44.520Z,5.82
2023-04-28T06:23:12.396Z,7.55
2023-04-28T06:25:44.513Z,6.18
2023-04-28T06:28:14.954Z,6.65
2023-04-28T06:30:43.253Z,8.00
2023-04-28T06:33:11.210Z,6.57
2023-04-28T06:35:40.500Z,8.95
2023-04-28T06:38:08.759Z,6.55
2023-04-28T06:40:36.712Z,7.70
2023-04-28T06:43:05.729Z,7.10
2023-04-28T06:45:35.142Z,10.52
2023-04-28T06:48:10.715Z,7.97
2023-04-28T06:50:42.400Z,8.57
2023-04-28T06:53:11.860Z,7.85
2023-04-28T06:55:41.174Z,9.75
2023-04-28T06:58:11.436Z,8.57
2023-04-28T07:00:43.622Z,7.68
2023-04-28T07:03:12.053Z,10.18
2023-04-28T07:05:40.549Z,7.00
2023-04-28T07:08:11.275Z,8.40
2023-04-28T07:10:42.546Z,7.25
2023-04-28T07:13:16.143Z,7.85
2023-04-28T07:15:59.760Z,9.20
2023-04-28T07:18:30.291Z,7.15
2023-04-28T07:21:05.380Z,8.38
2023-04-28T07:24:03.119Z,8.13
2023-04-28T07:26:53.577Z,6.60
2023-04-28T07:30:14.784Z,7.72
2023-04-28T07:32:50.267Z,7.90
2023-04-28T07:35:21.588Z,8.98
2023-04-28T07:41:44.192Z,9.77
2023-04-28T07:44:38.176Z,8.27
2023-04-28T07:47:23.658Z,7.18
2023-04-28T08:00:52.466Z,7.65
2023-04-28T08:04:01.396Z,8.68
2023-04-28T08:06:47.004Z,7.63
2023-04-28T08:09:41.816Z,6.72
2023-04-28T08:13:01.341Z,7.70
2023-04-28T08:25:36.314Z,7.45
2023-04-28T08:35:10.569Z,6.38
2023-04-28T08:44:40.807Z,8.70
2023-04-28T08:48:00.222Z,7.00
2023-04-28T08:54:28.270Z,7.25
2023-04-28T09:01:22.426Z,8.02
2023-04-28T09:23:29.627Z,8.40
2023-04-28T11:42:55.589Z,8.18
2023-04-28T12:04:14.922Z,9.73
2023-04-28T12:08:16.529Z,10.25
2023-04-28T12:12:03.385Z,7.65
2023-04-28T12:15:44.029Z,7.78
2023-04-28T12:24:17.373Z,7.97
2023-04-28T12:35:12.329Z,7.47
2023-04-28T12:42:05.391Z,8.88
2023-04-28T12:44:54.039Z,7.25
2023-04-28T12:47:43.361Z,6.63
2023-04-28T12:50:36.280Z,7.50
2023-04-28T12:53:18.582Z,7.40
2023-04-28T12:55:46.758Z,7.88
2023-04-28T12:58:25.457Z,7.78
2023-04-28T13:01:20.924Z,7.30
2023-04-28T13:04:16.197Z,8.00
2023-04-28T13:07:08.238Z,7.47
2023-04-28T13:12:22.855Z,10.18
2023-04-28T13:15:38.860Z,9.93
2023-04-28T13:19:11.837Z,6.97
2023-04-28T13:25:05.304Z,10.18
2023-04-28T13:29:04.182Z,8.80
2023-04-28T13:31:57.304Z,7.55
2023-04-28T13:34:26.686Z,10.90
2023-04-28T13:44:20.146Z,10.18
2023-04-28T13:47:55.649Z,10.63
2023-04-28T13:59:15.643Z,9.27
2023-04-28T14:01:33.054Z,10.48
2023-04-28T14:05:24.084Z,7.43
2023-04-28T14:12:24.185Z,8.07
2023-04-28T14:15:09.355Z,8.52
2023-04-28T14:18:00.440Z,8.63
2023-04-28T14:20:39.549Z,8.75
2023-04-28T14:26:06.675Z,8.85
2023-04-28T14:32:26.060Z,8.20
2023-04-28T14:35:38.867Z,10.68
2023-04-28T14:38:12.166Z,8.32
2023-04-28T14:40:56.758Z,8.60
2023-04-28T14:43:52.101Z,7.78
2023-04-28T14:46:55.454Z,8.88
2023-04-28T14:49:48.325Z,11.18
2023-04-28T14:52:39.456Z,10.18
2023-04-28T14:55:33.859Z,10.18
2023-04-28T14:58:29.889Z,7.35
2023-04-28T15:01:22.568Z,10.80
2023-04-28T15:04:27.016Z,8.52
2023-04-28T15:07:07.184Z,9.15
2023-04-28T15:20:38.349Z,8.82
2023-04-28T15:23:26.368Z,10.27
2023-04-28T15:26:15.491Z,8.88
2023-04-28T15:28:54.470Z,9.18
2023-04-28T15:31:42.969Z,7.57
2023-04-28T15:34:21.514Z,10.90
2023-04-28T15:36:53.833Z,9.40
2023-04-28T15:39:28.989Z,9.20
2023-04-28T15:42:05.621Z,8.73
2023-04-28T15:44:38.946Z,9.55
2023-04-28T15:47:36.423Z,8.70
2023-04-28T15:50:43.272Z,10.10
2023-04-28T15:53:25.309Z,11.98
2023-04-28T15:56:00.580Z,10.25
2023-04-28T15:58:28.812Z,10.82
2023-04-28T16:01:00.530Z,9.93
2023-04-28T16:03:28.995Z,10.35
2023-04-28T16:06:03.556Z,10.60
2023-04-28T16:08:33.098Z,9.90
2023-04-28T16:11:19.107Z,10.02
2023-04-28T16:14:19.452Z,9.27
2023-04-28T16:17:07.247Z,9.48
2023-04-28T16:19:39.518Z,11.82
2023-04-28T16:22:11.417Z,8.93
2023-04-28T16:24:43.923Z,8.68
2023-04-28T16:27:17.284Z,10.70
2023-04-28T16:29:50.106Z,11.77
2023-04-28T16:32:22.605Z,11.50
2023-04-28T16:35:51.439Z,11.75
2023-04-28T16:38:24.903Z,11.50
2023-04-28T16:41:15.588Z,11.63
2023-04-28T17:23:55.531Z,11.32
2023-04-28T17:26:49.759Z,10.57
2023-04-28T17:33:51.263Z,10.38
2023-04-28T17:36:20.727Z,11.20
2023-04-28T17:42:56.336Z,14.25
2023-04-28T17:45:30.558Z,13.98
2023-04-28T17:56:37.009Z,12.88
2023-04-28T17:59:23.153Z,12.38
2023-04-28T18:01:59.127Z,12.57
2023-04-28T18:04:34.245Z,13.80
2023-04-28T18:07:24.914Z,14.15
2023-04-28T18:10:24.624Z,13.68
2023-04-28T18:12:54.583Z,13.32
2023-04-28T18:15:29.342Z,13.00
2023-04-28T18:19:06.792Z,11.85
2023-04-28T18:26:07.194Z,13.10
2023-04-28T18:29:07.827Z,12.65
2023-04-28T18:31:37.317Z,12.32
2023-04-28T18:34:06.705Z,11.15
2023-04-28T18:36:39.502Z,13.30
2023-04-28T18:39:08.982Z,13.15
2023-04-28T18:41:39.395Z,12.50
2023-04-28T18:44:08.622Z,12.27
2023-04-28T18:47:00.011Z,11.27
2023-04-28T18:49:28.302Z,11.15
2023-04-28T18:55:59.244Z,14.20
2023-04-28T19:03:17.637Z,11.90
2023-04-28T19:09:16.655Z,12.88
2023-04-28T19:23:32.859Z,13.45
2023-04-28T19:33:04.392Z,12.82
2023-04-28T19:43:34.478Z,12.23
2023-04-28T19:50:07.304Z,11.65
2023-04-28T19:53:23.984Z,14.00
2023-04-28T19:55:53.078Z,12.68
2023-04-28T19:58:52.449Z,13.07
2023-04-28T20:01:48.043Z,12.40
2023-04-28T20:08:29.605Z,14.10
2023-04-28T20:20:03.326Z,14.27
2023-04-28T20:22:32.910Z,14.07
2023-04-28T20:34:09.434Z,14.70
2023-04-28T20:36:42.004Z,12.23
2023-04-28T20:44:27.500Z,12.60
2023-04-28T20:46:47.511Z,12.73
2023-04-28T20:49:18.290Z,10.80
2023-04-28T20:51:46.441Z,12.43
2023-04-28T20:54:15.288Z,12.68
2023-04-28T20:57:12.198Z,11.98
2023-04-28T21:00:09.121Z,11.05
2023-04-28T21:03:25.314Z,12.60
2023-04-28T21:06:01.191Z,12.07
2023-04-28T21:08:30.177Z,13.30
2023-04-28T21:10:58.388Z,12.25
2023-04-28T21:13:26.642Z,10.90
2023-04-28T21:16:01.164Z,11.23
2023-04-28T21:18:34.923Z,10.95
2023-04-28T21:21:03.029Z,9.65
2023-04-28T21:23:30.930Z,11.50
2023-04-28T21:25:59.653Z,8.82
2023-04-28T21:28:28.514Z,9.30
2023-04-28T21:30:59.320Z,8.77
2023-04-28T21:33:27.335Z,9.48
2023-04-28T21:35:57.567Z,9.73
2023-04-28T21:38:26.155Z,8.43
2023-04-28T21:40:54.279Z,9.45
2023-04-28T21:43:22.889Z,9.93
2023-04-28T21:45:52.167Z,8.43
2023-04-28T21:48:20.209Z,8.18
2023-04-28T21:50:48.368Z,8.05
2023-04-28T21:53:17.695Z,8.88
2023-04-28T21:55:47.239Z,8.18
2023-04-28T21:58:16.467Z,9.25
2023-04-28T22:00:46.410Z,7.55
2023-04-28T22:03:15.354Z,8.10
2023-04-28T22:05:44.635Z,6.80
2023-04-28T22:08:13.042Z,7.45
2023-04-28T22:10:44.031Z,8.43
2023-04-28T22:13:12.102Z,7.60
2023-04-28T22:15:40.126Z,6.90
2023-04-28T22:18:08.812Z,7.13
2023-04-28T22:20:36.834Z,6.55
2023-04-28T22:23:04.829Z,6.25
2023-04-28T22:25:37.052Z,6.75
2023-04-28T22:28:09.339Z,6.70
2023-04-28T22:30:39.126Z,6.97
2023-04-28T22:33:21.123Z,6.57
2023-04-28T22:35:49.256Z,6.82
2023-04-28T22:38:17.230Z,6.05
2023-04-28T22:40:45.938Z,6.00
2023-04-28T22:43:15.308Z,6.43
2023-04-28T22:45:45.527Z,6.63
2023-04-28T22:48:14.458Z,5.95
2023-04-28T22:50:44.458Z,5.90
2023-04-28T22:53:12.986Z,6.22
2023-04-28T22:55:43.401Z,6.32
2023-04-28T22:58:12.665Z,5.93
2023-04-28T23:00:42.782Z,6.53
2023-04-28T23:03:10.851Z,7.22
2023-04-28T23:05:39.277Z,6.10
2023-04-28T23:08:08.874Z,6.53
2023-04-28T23:10:36.917Z,6.40
2023-04-28T23:13:04.932Z,7.38
2023-04-28T23:15:33.035Z,8.60
2023-04-28T23:18:02.437Z,9.63
2023-04-28T23:20:30.463Z,11.27
2023-04-28T23:23:01.260Z,9.27
2023-04-28T23:25:29.314Z,10.38
2023-04-28T23:27:57.472Z,9.45
2023-04-28T23:30:28.289Z,7.80
2023-04-28T23:32:56.774Z,6.90
2023-04-28T23:35:29.189Z,7.65
2023-04-28T23:37:57.197Z,7.13
2023-04-28T23:40:25.683Z,9.40
2023-04-28T23:42:53.623Z,6.43
2023-04-28T23:45:21.549Z,8.45
2023-04-28T23:47:49.801Z,6.82
2023-04-28T23:50:18.159Z,7.35
2023-04-28T23:52:47.531Z,7.32
2023-04-28T23:55:15.909Z,7.72
2023-04-28T23:57:43.866Z,6.97
